Time;durP1;ratioP1;P1;durP2;ratioP2;P2;SDS_P1;SDS_P2;PMS_P1;PMS_P2;Temp;Humidity;BMP_temperature;BMP_pressure;BME280_temperature;BME280_humidity;BME280_pressure;Samples;Min_cycle;Max_cycle;Signal;HPM_P1;HPM_P2
2022/04/29 00:02:15;;;;;;;11.80;8.80;;;;;;;;;;10366652;28;20141;-76
2022/04/29 00:07:15;;;;;;;11.80;9.60;;;;;;;;;;10369021;28;20046;-79
2022/04/29 00:12:15;;;;;;;9.23;8.02;;;;;;;;;;10391961;28;20125;-78
2022/04/29 00:17:16;;;;;;;9.50;8.52;;;;;;;;;;10363036;28;20061;-79
2022/04/29 00:22:18;;;;;;;10.45;8.23;;;;;;;;;;10350773;28;20042;-80
2022/04/29 00:27:20;;;;;;;11.30;9.18;;;;;;;;;;10375510;28;20038;-80
2022/04/29 00:32:24;;;;;;;10.93;9.32;;;;;;;;;;10366973;28;20843;-77
2022/04/29 00:37:26;;;;;;;10.05;8.70;;;;;;;;;;10375789;28;21065;-79
2022/04/29 00:42:27;;;;;;;12.88;8.77;;;;;;;;;;10354705;28;20125;-78
2022/04/29 00:47:28;;;;;;;13.70;9.27;;;;;;;;;;10371692;28;20057;-78
2022/04/29 00:52:31;;;;;;;10.75;8.55;;;;;;;;;;10370466;28;20104;-77
2022/04/29 00:57:37;;;;;;;10.30;8.60;;;;;;;;;;10364501;28;20133;-78
2022/04/29 01:02:40;;;;;;;10.45;8.60;;;;;;;;;;10344420;28;20065;-78
2022/04/29 01:07:41;;;;;;;11.88;8.88;;;;;;;;;;10358227;28;20069;-77
2022/04/29 01:12:44;;;;;;;10.07;8.73;;;;;;;;;;10350213;28;20061;-78
2022/04/29 01:17:46;;;;;;;10.25;9.13;;;;;;;;;;10352841;28;20062;-77
2022/04/29 01:22:47;;;;;;;10.85;9.13;;;;;;;;;;10386283;28;20030;-76
2022/04/29 01:27:49;;;;;;;10.43;9.33;;;;;;;;;;10379226;28;20096;-77
2022/04/29 01:32:50;;;;;;;11.07;9.27;;;;;;;;;;10349818;28;20380;-78
2022/04/29 01:37:51;;;;;;;11.70;10.07;;;;;;;;;;10340909;28;20132;-76
2022/04/29 01:42:53;;;;;;;10.23;9.13;;;;;;;;;;10351027;28;20129;-78
2022/04/29 01:47:53;;;;;;;12.40;10.23;;;;;;;;;;10340431;28;20140;-79
2022/04/29 01:53:12;;;;;;;12.05;9.57;;;;;;;;;;10358579;28;20541;-78
2022/04/29 01:58:13;;;;;;;13.30;10.20;;;;;;;;;;10334346;28;20061;-80
2022/04/29 02:03:16;;;;;;;11.70;9.77;;;;;;;;;;10361845;28;20054;-77
2022/04/29 02:08:17;;;;;;;12.60;9.50;;;;;;;;;;10344926;28;20133;-78
2022/04/29 02:13:20;;;;;;;11.00;9.80;;;;;;;;;;10322184;28;20045;-76
2022/04/29 02:18:40;;;;;;;11.07;9.05;;;;;;;;;;10358320;28;20402;-77
2022/04/29 02:23:41;;;;;;;10.15;8.60;;;;;;;;;;10342763;28;20132;-76
2022/04/29 02:28:41;;;;;;;12.23;9.97;;;;;;;;;;10362860;28;20092;-77
2022/04/29 02:33:42;;;;;;;10.15;9.10;;;;;;;;;;10358550;28;20054;-79
2022/04/29 02:38:44;;;;;;;11.75;10.15;;;;;;;;;;10337256;28;20054;-78
2022/04/29 02:43:44;;;;;;;12.90;10.10;;;;;;;;;;10344013;28;20038;-79
2022/04/29 02:48:47;;;;;;;12.15;9.48;;;;;;;;;;10349007;28;20042;-79
2022/04/29 02:53:51;;;;;;;12.20;9.70;;;;;;;;;;10356462;28;20144;-79
2022/04/29 02:58:52;;;;;;;13.88;10.20;;;;;;;;;;10346366;28;20070;-79
2022/04/29 03:03:53;;;;;;;14.52;9.60;;;;;;;;;;10370205;28;20077;-78
2022/04/29 03:08:53;;;;;;;11.57;8.77;;;;;;;;;;10332186;28;20049;-79
2022/04/29 03:13:54;;;;;;;10.68;9.20;;;;;;;;;;10351125;28;20281;-79
2022/04/29 03:18:55;;;;;;;11.70;9.85;;;;;;;;;;10341923;28;20048;-78
2022/04/29 03:23:56;;;;;;;10.32;8.68;;;;;;;;;;10346299;28;20050;-78
2022/04/29 03:28:57;;;;;;;10.45;9.23;;;;;;;;;;10334126;28;20104;-79
2022/04/29 03:33:58;;;;;;;11.70;9.77;;;;;;;;;;10342358;28;20441;-79
2022/04/29 03:38:58;;;;;;;10.98;9.10;;;;;;;;;;10370065;28;20053;-78
2022/04/29 03:44:00;;;;;;;11.00;9.25;;;;;;;;;;10372666;28;20058;-80
2022/04/29 03:54:28;;;;;;;11.88;9.45;;;;;;;;;;10392137;28;20077;-79
2022/04/29 03:59:32;;;;;;;11.00;9.63;;;;;;;;;;10341647;28;20076;-79
2022/04/29 04:04:35;;;;;;;12.30;9.85;;;;;;;;;;10363990;28;20107;-79
2022/04/29 04:09:39;;;;;;;12.23;9.70;;;;;;;;;;10369451;28;20054;-80
2022/04/29 04:14:40;;;;;;;12.52;10.02;;;;;;;;;;10350340;28;20446;-78
2022/04/29 04:19:41;;;;;;;12.25;9.98;;;;;;;;;;10343958;28;20137;-78
2022/04/29 04:24:42;;;;;;;14.70;11.00;;;;;;;;;;10381504;28;20141;-77
2022/04/29 04:29:42;;;;;;;17.67;12.45;;;;;;;;;;10343838;28;20052;-78
2022/04/29 04:34:53;;;;;;;18.73;13.27;;;;;;;;;;10346284;28;20058;-78
2022/04/29 04:39:54;;;;;;;20.23;14.73;;;;;;;;;;10355563;28;20265;-78
2022/04/29 04:44:55;;;;;;;21.60;14.63;;;;;;;;;;10326813;28;20065;-78
2022/04/29 04:49:57;;;;;;;17.48;11.93;;;;;;;;;;10352508;28;20049;-77
2022/04/29 04:55:17;;;;;;;17.38;12.98;;;;;;;;;;10365615;28;20077;-78
2022/04/29 05:00:21;;;;;;;16.60;13.20;;;;;;;;;;10348552;28;20073;-77
2022/04/29 05:05:39;;;;;;;20.88;13.68;;;;;;;;;;10358029;28;20069;-77
2022/04/29 05:10:47;;;;;;;14.93;10.88;;;;;;;;;;10357022;28;20042;-77
2022/04/29 05:15:49;;;;;;;16.40;12.68;;;;;;;;;;10352182;28;20615;-78
2022/04/29 05:20:59;;;;;;;14.15;10.57;;;;;;;;;;10351348;28;20058;-77
2022/04/29 05:26:00;;;;;;;14.35;12.35;;;;;;;;;;10347360;28;20046;-78
2022/04/29 05:31:19;;;;;;;12.55;10.00;;;;;;;;;;10373102;28;20502;-77
2022/04/29 05:36:38;;;;;;;15.70;11.05;;;;;;;;;;10365352;28;20092;-77
2022/04/29 05:42:18;;;;;;;15.63;11.27;;;;;;;;;;10360306;28;20046;-77
2022/04/29 05:47:19;;;;;;;16.45;10.20;;;;;;;;;;10358355;28;20508;-76
2022/04/29 05:52:22;;;;;;;;;;;;;;;;;;10340289;28;20045;-78
2022/04/29 05:57:23;;;;;;;15.00;10.45;;;;;;;;;;10354428;28;19925;-78
2022/04/29 06:02:24;;;;;;;10.97;9.03;;;;;;;;;;10353463;28;20054;-75
2022/04/29 06:07:32;;;;;;;10.05;8.68;;;;;;;;;;10340316;28;20277;-74
2022/04/29 06:12:39;;;;;;;10.93;9.60;;;;;;;;;;10364620;28;20053;-76
2022/04/29 06:17:43;;;;;;;10.93;9.77;;;;;;;;;;10355137;28;20293;-78
2022/04/29 06:23:02;;;;;;;11.25;9.77;;;;;;;;;;10386793;28;20053;-77
2022/04/29 06:28:07;;;;;;;12.82;10.38;;;;;;;;;;10345245;28;20049;-79
2022/04/29 06:33:08;;;;;;;12.25;10.32;;;;;;;;;;10338391;28;20034;-78
2022/04/29 06:38:18;;;;;;;11.00;9.85;;;;;;;;;;10350520;28;20503;-77
2022/04/29 06:43:31;;;;;;;10.38;9.00;;;;;;;;;;10366845;28;20128;-77
2022/04/29 06:48:54;;;;;;;11.90;9.80;;;;;;;;;;10354124;28;20760;-78
2022/04/29 06:54:23;;;;;;;9.73;8.73;;;;;;;;;;10329424;28;20894;-79
2022/04/29 06:59:31;;;;;;;11.52;10.32;;;;;;;;;;10342015;28;20046;-78
2022/04/29 07:04:32;;;;;;;16.30;10.68;;;;;;;;;;10340118;28;20053;-78
2022/04/29 07:09:34;;;;;;;10.95;9.38;;;;;;;;;;10376229;28;20042;-78
2022/04/29 07:15:00;;;;;;;10.88;8.90;;;;;;;;;;10352005;28;20148;-78
2022/04/29 07:20:02;;;;;;;12.68;9.88;;;;;;;;;;10374854;28;20045;-77
2022/04/29 07:25:06;;;;;;;12.50;9.45;;;;;;;;;;10380386;28;20054;-78
2022/04/29 07:30:11;;;;;;;11.55;9.30;;;;;;;;;;10364034;28;20042;-78
2022/04/29 07:46:23;;;;;;;16.13;10.52;;;;;;;;;;10369870;28;20059;-79
2022/04/29 07:51:37;;;;;;;10.82;9.75;;;;;;;;;;10363233;28;20103;-78
2022/04/29 07:56:39;;;;;;;9.35;7.90;;;;;;;;;;10333307;28;20113;-78
2022/04/29 08:01:45;;;;;;;10.60;9.50;;;;;;;;;;10380808;28;20081;-78
2022/04/29 08:06:49;;;;;;;10.10;9.10;;;;;;;;;;10345716;28;20071;-78
2022/04/29 08:11:50;;;;;;;9.98;9.02;;;;;;;;;;10340543;28;20042;-77
2022/04/29 08:17:02;;;;;;;9.90;8.90;;;;;;;;;;10364926;28;20149;-78
2022/04/29 08:22:09;;;;;;;10.93;9.68;;;;;;;;;;10354429;28;20041;-80
2022/04/29 08:27:10;;;;;;;9.93;8.90;;;;;;;;;;10339795;28;20049;-79
2022/04/29 08:32:11;;;;;;;9.63;8.73;;;;;;;;;;10346027;28;20057;-79
2022/04/29 08:37:15;;;;;;;7.68;6.88;;;;;;;;;;10368339;28;20148;-79
2022/04/29 08:42:19;;;;;;;9.18;7.60;;;;;;;;;;10378631;28;20056;-78
2022/04/29 08:47:27;;;;;;;8.68;7.78;;;;;;;;;;10399589;28;20057;-79
2022/04/29 08:52:41;;;;;;;8.70;7.55;;;;;;;;;;10355424;28;20129;-79
2022/04/29 09:03:04;;;;;;;8.43;6.60;;;;;;;;;;10349940;28;20184;-78
2022/04/29 09:08:05;;;;;;;7.25;6.45;;;;;;;;;;10359882;28;20081;-78
2022/04/29 09:13:13;;;;;;;8.40;6.15;;;;;;;;;;10354562;28;20045;-79
2022/04/29 09:18:15;;;;;;;7.32;6.07;;;;;;;;;;10344067;28;20133;-79
2022/04/29 09:23:24;;;;;;;6.53;5.50;;;;;;;;;;10361832;28;20129;-79
2022/04/29 09:29:10;;;;;;;6.05;5.55;;;;;;;;;;10355339;28;20038;-78
2022/04/29 09:34:15;;;;;;;10.07;7.90;;;;;;;;;;10379071;28;20074;-79
2022/04/29 09:39:28;;;;;;;6.57;5.97;;;;;;;;;;10367743;28;20084;-79
2022/04/29 09:44:30;;;;;;;6.45;5.80;;;;;;;;;;10384346;28;20088;-78
2022/04/29 09:49:30;;;;;;;5.67;4.93;;;;;;;;;;10377067;28;20057;-77
2022/04/29 09:54:35;;;;;;;5.10;4.60;;;;;;;;;;10368849;28;20364;-77
2022/04/29 09:59:49;;;;;;;4.50;4.10;;;;;;;;;;10377959;28;20297;-78
2022/04/29 10:04:51;;;;;;;7.95;5.10;;;;;;;;;;10382361;28;20405;-78
2022/04/29 10:09:53;;;;;;;8.85;7.30;;;;;;;;;;10372504;28;20050;-80
2022/04/29 10:15:05;;;;;;;5.07;4.57;;;;;;;;;;10379792;28;20068;-78
2022/04/29 10:25:41;;;;;;;5.43;4.93;;;;;;;;;;10366632;28;20042;-78
2022/04/29 10:30:41;;;;;;;5.20;4.70;;;;;;;;;;10350109;28;20037;-78
2022/04/29 10:35:47;;;;;;;5.17;4.60;;;;;;;;;;10356546;28;20054;-77
2022/04/29 10:41:07;;;;;;;6.88;4.68;;;;;;;;;;10363374;28;20049;-77
2022/04/29 10:46:08;;;;;;;8.65;5.50;;;;;;;;;;10364227;28;20045;-77
2022/04/29 10:51:19;;;;;;;5.85;4.68;;;;;;;;;;10340728;28;20042;-78
2022/04/29 10:56:57;;;;;;;4.78;4.32;;;;;;;;;;10361471;28;20057;-78
2022/04/29 11:02:06;;;;;;;5.18;4.68;;;;;;;;;;10362689;28;20042;-75
2022/04/29 11:07:26;;;;;;;4.78;4.40;;;;;;;;;;10359017;28;20156;-76
2022/04/29 11:12:34;;;;;;;3.85;3.55;;;;;;;;;;10360093;28;20446;-76
2022/04/29 11:18:11;;;;;;;4.78;4.18;;;;;;;;;;10368723;28;20054;-78
2022/04/29 11:28:32;;;;;;;5.43;4.93;;;;;;;;;;10363380;28;20097;-77
2022/04/29 11:34:13;;;;;;;4.25;3.90;;;;;;;;;;10340817;28;20034;-78
2022/04/29 11:39:14;;;;;;;5.40;4.28;;;;;;;;;;10327366;28;20176;-77
2022/04/29 11:44:15;;;;;;;4.22;3.92;;;;;;;;;;10362404;28;20171;-77
2022/04/29 11:49:26;;;;;;;3.95;3.35;;;;;;;;;;10340617;28;20469;-77
2022/04/29 11:54:28;;;;;;;4.40;4.00;;;;;;;;;;10376319;28;20049;-76
2022/04/29 11:59:29;;;;;;;4.68;4.10;;;;;;;;;;10376782;28;20042;-76
2022/04/29 12:04:30;;;;;;;4.13;3.67;;;;;;;;;;10369920;28;20053;-76
2022/04/29 12:09:32;;;;;;;4.53;4.10;;;;;;;;;;10374121;28;20050;-76
2022/04/29 12:14:33;;;;;;;4.82;3.60;;;;;;;;;;10378185;28;20090;-75
2022/04/29 12:19:33;;;;;;;5.00;3.60;;;;;;;;;;10385435;28;20057;-77
2022/04/29 12:24:42;;;;;;;4.03;3.70;;;;;;;;;;10386441;28;20782;-77
2022/04/29 12:34:48;;;;;;;4.18;3.78;;;;;;;;;;10383941;28;20127;-79
2022/04/29 12:35:13;;;;;;;3.72;3.42;;;;;;;;;;10389304;28;20077;-80
2022/04/29 12:40:13;;;;;;;4.25;3.70;;;;;;;;;;10385842;28;20085;-79
2022/04/29 12:45:24;;;;;;;4.25;3.63;;;;;;;;;;10369179;28;20133;-79
2022/04/29 12:50:37;;;;;;;3.92;3.45;;;;;;;;;;10386270;28;20058;-83
2022/04/29 12:55:37;;;;;;;3.80;3.50;;;;;;;;;;10370256;28;20061;-78
2022/04/29 13:00:39;;;;;;;4.63;3.50;;;;;;;;;;10366960;28;20049;-79
2022/04/29 13:05:40;;;;;;;4.00;3.70;;;;;;;;;;10360813;28;20077;-79
2022/04/29 13:10:50;;;;;;;3.30;3.00;;;;;;;;;;10367626;28;20112;-80
2022/04/29 13:15:54;;;;;;;3.27;3.03;;;;;;;;;;10347070;28;20468;-77
2022/04/29 13:20:56;;;;;;;4.20;3.85;;;;;;;;;;10352123;28;20497;-78
2022/04/29 13:26:02;;;;;;;3.20;2.95;;;;;;;;;;10355654;28;20137;-77
2022/04/29 13:31:03;;;;;;;3.63;3.30;;;;;;;;;;10371974;28;20045;-77
2022/04/29 13:36:05;;;;;;;3.60;3.20;;;;;;;;;;10367714;28;20216;-76
2022/04/29 13:41:06;;;;;;;3.85;3.47;;;;;;;;;;10330153;28;20092;-77
2022/04/29 13:46:06;;;;;;;4.20;3.27;;;;;;;;;;10367366;28;20046;-76
2022/04/29 13:51:06;;;;;;;4.53;3.60;;;;;;;;;;10352562;28;20116;-77
2022/04/29 13:56:07;;;;;;;5.55;3.60;;;;;;;;;;10363333;28;20053;-76
2022/04/29 14:01:08;;;;;;;3.73;3.30;;;;;;;;;;10346664;28;20500;-76
2022/04/29 14:06:08;;;;;;;5.17;3.73;;;;;;;;;;10361831;28;20269;-75
2022/04/29 14:11:11;;;;;;;3.70;3.40;;;;;;;;;;10371108;28;20084;-77
2022/04/29 14:16:12;;;;;;;3.70;3.40;;;;;;;;;;10379296;28;20050;-77
2022/04/29 14:21:12;;;;;;;3.50;3.20;;;;;;;;;;10380626;28;20057;-76
2022/04/29 14:26:14;;;;;;;3.70;3.40;;;;;;;;;;10366485;28;20050;-77
2022/04/29 14:31:16;;;;;;;;;;;;;;;;;;10403980;28;20348;-76
2022/04/29 14:36:17;;;;;;;3.83;3.30;;;;;;;;;;10408245;28;19909;-76
2022/04/29 14:41:17;;;;;;;6.20;3.60;;;;;;;;;;10395581;28;20050;-76
2022/04/29 14:46:20;;;;;;;3.88;3.40;;;;;;;;;;10368667;28;20042;-77
2022/04/29 14:51:21;;;;;;;4.57;3.50;;;;;;;;;;10349073;28;20413;-77
2022/04/29 14:56:22;;;;;;;4.33;3.30;;;;;;;;;;10364836;28;20050;-75
2022/04/29 15:01:23;;;;;;;4.03;3.20;;;;;;;;;;10364080;28;20045;-76
2022/04/29 15:06:24;;;;;;;3.65;3.35;;;;;;;;;;10351182;28;20200;-77
2022/04/29 15:16:45;;;;;;;3.53;3.28;;;;;;;;;;10366198;28;19929;-78
2022/04/29 15:21:45;;;;;;;4.27;3.83;;;;;;;;;;10368050;28;20041;-79
2022/04/29 15:26:45;;;;;;;4.50;3.57;;;;;;;;;;10342357;28;20136;-78
2022/04/29 15:31:53;;;;;;;4.85;3.50;;;;;;;;;;10348260;28;20084;-80
2022/04/29 15:36:56;;;;;;;4.95;3.75;;;;;;;;;;10354118;28;20050;-79
2022/04/29 15:42:07;;;;;;;4.32;3.85;;;;;;;;;;10367732;28;20068;-77
2022/04/29 15:47:07;;;;;;;4.07;3.60;;;;;;;;;;10366045;28;20132;-75
2022/04/29 15:52:11;;;;;;;4.07;3.63;;;;;;;;;;10370130;28;20391;-77
2022/04/29 15:57:11;;;;;;;4.40;3.77;;;;;;;;;;10352475;28;20076;-73
2022/04/29 16:02:12;;;;;;;3.80;3.50;;;;;;;;;;10365559;28;20794;-75
2022/04/29 16:07:12;;;;;;;3.77;3.47;;;;;;;;;;10368440;28;20481;-74
2022/04/29 16:12:12;;;;;;;4.10;3.70;;;;;;;;;;10370005;28;20419;-73
2022/04/29 16:17:13;;;;;;;4.93;4.33;;;;;;;;;;10361218;28;20289;-73
2022/04/29 16:22:13;;;;;;;6.43;3.93;;;;;;;;;;10364763;28;20081;-78
2022/04/29 16:27:14;;;;;;;4.35;3.95;;;;;;;;;;10368370;28;20084;-77
2022/04/29 16:32:18;;;;;;;5.00;4.47;;;;;;;;;;10375142;28;20107;-77
2022/04/29 16:37:18;;;;;;;6.32;4.07;;;;;;;;;;10356324;28;20080;-77
2022/04/29 16:42:18;;;;;;;4.28;3.88;;;;;;;;;;10375024;28;20037;-78
2022/04/29 16:47:19;;;;;;;4.38;3.97;;;;;;;;;;10378307;28;20057;-78
2022/04/29 16:52:22;;;;;;;3.67;3.35;;;;;;;;;;10353475;28;20078;-77
2022/04/29 17:02:43;;;;;;;4.15;3.75;;;;;;;;;;10357016;28;20053;-79
2022/04/29 17:07:46;;;;;;;5.38;4.00;;;;;;;;;;10363457;28;20073;-78
2022/04/29 17:12:46;;;;;;;4.22;3.83;;;;;;;;;;10337644;28;20062;-77
2022/04/29 17:17:47;;;;;;;3.80;3.50;;;;;;;;;;10352804;28;20073;-75
2022/04/29 17:22:47;;;;;;;5.17;4.03;;;;;;;;;;10341514;28;20468;-77
2022/04/29 17:27:49;;;;;;;4.47;4.07;;;;;;;;;;10354707;28;20045;-81
2022/04/29 17:32:49;;;;;;;6.20;3.67;;;;;;;;;;10354386;28;20444;-78
2022/04/29 17:37:49;;;;;;;4.43;4.03;;;;;;;;;;10364641;28;20058;-77
2022/04/29 17:42:50;;;;;;;4.53;4.13;;;;;;;;;;10359473;28;20092;-78
2022/04/29 17:47:51;;;;;;;4.30;3.90;;;;;;;;;;10391025;28;20129;-78
2022/04/29 17:52:55;;;;;;;7.07;5.22;;;;;;;;;;10360882;28;20046;-78
2022/04/29 17:57:56;;;;;;;4.78;4.28;;;;;;;;;;10372491;28;20658;-77
2022/04/29 18:02:57;;;;;;;5.85;4.75;;;;;;;;;;10378294;28;20184;-80
2022/04/29 18:08:01;;;;;;;4.10;3.70;;;;;;;;;;10373068;28;20041;-79
2022/04/29 18:13:04;;;;;;;4.60;4.20;;;;;;;;;;10382204;28;20046;-77
2022/04/29 18:18:05;;;;;;;4.97;4.35;;;;;;;;;;10344534;28;20509;-76
2022/04/29 18:23:06;;;;;;;5.28;4.72;;;;;;;;;;10372878;28;20042;-76
2022/04/29 18:28:07;;;;;;;5.13;4.47;;;;;;;;;;10358134;28;20045;-78
2022/04/29 18:33:10;;;;;;;6.53;5.60;;;;;;;;;;10355400;28;20299;-78
2022/04/29 18:38:10;;;;;;;6.60;5.43;;;;;;;;;;10364868;28;20141;-79
2022/04/29 18:43:12;;;;;;;5.53;5.03;;;;;;;;;;10358938;28;20046;-77
2022/04/29 18:48:13;;;;;;;;;;;;;;;;;;10384100;28;20308;-76
2022/04/29 18:53:15;;;;;;;5.27;4.77;;;;;;;;;;10373320;28;20004;-77
2022/04/29 18:58:15;;;;;;;4.90;4.38;;;;;;;;;;10378552;28;20050;-78
2022/04/29 19:03:16;;;;;;;5.43;4.93;;;;;;;;;;10355972;28;20048;-78
2022/04/29 19:08:17;;;;;;;5.07;4.60;;;;;;;;;;10357693;28;20045;-78
2022/04/29 19:13:18;;;;;;;6.05;5.30;;;;;;;;;;10368978;28;20061;-77
2022/04/29 19:18:20;;;;;;;6.70;6.10;;;;;;;;;;10373789;28;20505;-77
2022/04/29 19:23:20;;;;;;;6.47;5.80;;;;;;;;;;10376366;28;20038;-76
2022/04/29 19:28:20;;;;;;;7.78;6.80;;;;;;;;;;10359941;28;20042;-77
2022/04/29 19:33:21;;;;;;;7.65;6.80;;;;;;;;;;10364395;28;20042;-77
2022/04/29 19:38:21;;;;;;;6.45;5.85;;;;;;;;;;10340721;28;20057;-78
2022/04/29 19:43:22;;;;;;;9.03;6.17;;;;;;;;;;10367937;28;20509;-78
2022/04/29 19:48:23;;;;;;;6.78;5.72;;;;;;;;;;10339175;28;20653;-76
2022/04/29 19:53:23;;;;;;;6.28;5.68;;;;;;;;;;10351778;28;20053;-75
2022/04/29 20:03:42;;;;;;;5.70;5.10;;;;;;;;;;10368104;28;20280;-77
2022/04/29 20:08:42;;;;;;;5.70;5.20;;;;;;;;;;10344503;28;20046;-76
2022/04/29 20:13:44;;;;;;;6.93;6.18;;;;;;;;;;10363579;28;20782;-76
2022/04/29 20:18:45;;;;;;;7.13;5.75;;;;;;;;;;10361116;28;20164;-78
2022/04/29 20:23:47;;;;;;;6.90;6.30;;;;;;;;;;10364429;28;20070;-82
2022/04/29 20:28:51;;;;;;;8.35;7.10;;;;;;;;;;10373445;28;20050;-78
2022/04/29 20:33:51;;;;;;;7.37;6.67;;;;;;;;;;10369708;28;20500;-77
2022/04/29 20:38:53;;;;;;;6.10;5.55;;;;;;;;;;10369182;28;20065;-77
2022/04/29 20:44:02;;;;;;;6.73;6.10;;;;;;;;;;10353205;28;20050;-77
2022/04/29 20:49:03;;;;;;;7.70;5.93;;;;;;;;;;10367668;28;20050;-77
2022/04/29 20:54:04;;;;;;;7.53;6.38;;;;;;;;;;10376227;28;20045;-79
2022/04/29 20:59:05;;;;;;;7.47;6.78;;;;;;;;;;10343930;28;20080;-75
2022/04/29 21:04:06;;;;;;;8.32;7.32;;;;;;;;;;10390833;28;20073;-77
2022/04/29 21:09:06;;;;;;;8.68;7.65;;;;;;;;;;10401901;28;20046;-76
2022/04/29 21:14:07;;;;;;;9.25;7.95;;;;;;;;;;10398392;28;20050;-76
2022/04/29 21:19:08;;;;;;;8.30;7.50;;;;;;;;;;10390177;28;20524;-77
2022/04/29 21:24:09;;;;;;;10.38;9.13;;;;;;;;;;10386608;28;20044;-76
2022/04/29 21:34:30;;;;;;;8.18;7.38;;;;;;;;;;10376016;28;20041;-76
2022/04/29 21:39:31;;;;;;;8.52;7.63;;;;;;;;;;10346887;28;20049;-75
2022/04/29 21:44:31;;;;;;;9.87;8.97;;;;;;;;;;10365198;28;20046;-76
2022/04/29 21:49:31;;;;;;;9.93;8.90;;;;;;;;;;10363153;28;20056;-77
2022/04/29 21:54:36;;;;;;;9.18;7.95;;;;;;;;;;10366082;28;20046;-75
2022/04/29 21:59:36;;;;;;;;;;;;;;;;;;10363850;28;20065;-79
2022/04/29 22:04:37;;;;;;;9.40;8.40;;;;;;;;;;10349598;28;19918;-76
2022/04/29 22:09:38;;;;;;;9.60;8.47;;;;;;;;;;10359965;28;20042;-77
2022/04/29 22:14:41;;;;;;;9.20;8.27;;;;;;;;;;10359707;28;20128;-77
2022/04/29 22:19:42;;;;;;;10.13;9.13;;;;;;;;;;10366609;28;20772;-77
2022/04/29 22:24:42;;;;;;;11.43;8.95;;;;;;;;;;10348134;28;20041;-76
2022/04/29 22:29:43;;;;;;;9.77;8.80;;;;;;;;;;10351912;28;20046;-77
2022/04/29 22:34:43;;;;;;;12.15;9.88;;;;;;;;;;10338713;28;20053;-77
2022/04/29 22:39:43;;;;;;;11.07;9.93;;;;;;;;;;10348816;28;20057;-76
2022/04/29 22:44:44;;;;;;;13.88;11.48;;;;;;;;;;10365675;28;20085;-77
2022/04/29 22:49:46;;;;;;;12.90;11.15;;;;;;;;;;10355968;28;20109;-76
2022/04/29 22:54:46;;;;;;;12.57;11.27;;;;;;;;;;10372310;28;20061;-76
2022/04/29 22:59:49;;;;;;;12.10;10.43;;;;;;;;;;10375462;28;20057;-76
2022/04/29 23:04:49;;;;;;;13.35;12.05;;;;;;;;;;10358159;28;20049;-76
2022/04/29 23:09:50;;;;;;;13.02;11.02;;;;;;;;;;10360450;28;20500;-76
2022/04/29 23:14:52;;;;;;;15.40;11.32;;;;;;;;;;10362775;28;20151;-75
2022/04/29 23:19:54;;;;;;;10.10;9.00;;;;;;;;;;10349938;28;20044;-76
2022/04/29 23:24:54;;;;;;;13.30;11.80;;;;;;;;;;10342133;28;20041;-76
2022/04/29 23:29:55;;;;;;;11.73;10.53;;;;;;;;;;10357018;28;20098;-76
2022/04/29 23:34:55;;;;;;;12.93;11.57;;;;;;;;;;10370087;28;20037;-76
2022/04/29 23:39:59;;;;;;;12.27;11.15;;;;;;;;;;10340721;28;20065;-75
2022/04/29 23:45:00;;;;;;;10.35;9.35;;;;;;;;;;10361276;28;20050;-76
2022/04/29 23:50:01;;;;;;;11.40;10.20;;;;;;;;;;10361969;28;20045;-76
2022/04/29 23:55:03;;;;;;;12.15;10.70;;;;;;;;;;10359030;28;20452;-76
